Time;durP1;ratioP1;P1;durP2;ratioP2;P2;SDS_P1;SDS_P2;PMS_P1;PMS_P2;Temp;Humidity;BMP_temperature;BMP_pressure;BME280_temperature;BME280_humidity;BME280_pressure;Samples;Min_cycle;Max_cycle;Signal;HPM_P1;HPM_P2
2023/07/21 00:02:17;;;;;;;0.00;0.00;;;;;;;;;;7381511;19;20156;-75
2023/07/21 00:04:48;;;;;;;0.00;0.00;;;;;;;;;;7385227;19;20136;-74
2023/07/21 00:07:17;;;;;;;0.00;0.00;;;;;;;;;;7382393;19;20153;-74
2023/07/21 00:09:47;;;;;;;0.00;0.00;;;;;;;;;;7381260;19;20156;-74
2023/07/21 00:12:16;;;;;;;0.00;0.00;;;;;;;;;;7382797;19;20783;-74
2023/07/21 00:14:45;;;;;;;0.00;0.00;;;;;;;;;;7384599;19;20136;-75
2023/07/21 00:17:15;;;;;;;0.00;0.00;;;;;;;;;;7382450;19;20173;-75
2023/07/21 00:19:44;;;;;;;0.00;0.00;;;;;;;;;;7382263;19;20209;-74
2023/07/21 00:22:16;;;;;;;0.00;0.00;;;;;;;;;;7380821;19;20163;-75
2023/07/21 00:24:45;;;;;;;0.00;0.00;;;;;;;;;;7382504;19;20160;-75
2023/07/21 00:27:15;;;;;;;0.10;0.10;;;;;;;;;;7381259;19;20151;-75
2023/07/21 00:29:44;;;;;;;0.00;0.00;;;;;;;;;;7380216;19;20220;-75
2023/07/21 00:32:17;;;;;;;0.03;0.03;;;;;;;;;;7382750;19;20128;-74
2023/07/21 00:34:47;;;;;;;0.00;0.00;;;;;;;;;;7381145;19;20172;-74
2023/07/21 00:37:19;;;;;;;0.00;0.00;;;;;;;;;;7380266;19;20148;-74
2023/07/21 00:39:48;;;;;;;0.00;0.00;;;;;;;;;;7382309;19;20137;-74
2023/07/21 00:42:17;;;;;;;0.00;0.00;;;;;;;;;;7382905;19;20137;-74
2023/07/21 00:44:46;;;;;;;0.00;0.00;;;;;;;;;;7381680;19;20160;-74
2023/07/21 00:47:15;;;;;;;0.00;0.00;;;;;;;;;;7381649;19;20145;-75
2023/07/21 00:49:45;;;;;;;0.00;0.00;;;;;;;;;;7377534;19;20141;-74
2023/07/21 00:52:17;;;;;;;0.00;0.00;;;;;;;;;;7379478;19;20210;-74
2023/07/21 00:54:49;;;;;;;0.00;0.00;;;;;;;;;;7381936;19;20161;-74
2023/07/21 00:57:19;;;;;;;0.00;0.00;;;;;;;;;;7381577;19;20145;-75
2023/07/21 00:59:48;;;;;;;0.00;0.00;;;;;;;;;;7380758;19;20156;-74
2023/07/21 01:02:17;;;;;;;0.00;0.00;;;;;;;;;;7381644;19;20137;-75
2023/07/21 01:04:46;;;;;;;0.00;0.00;;;;;;;;;;7380644;19;20216;-74
2023/07/21 01:07:16;;;;;;;0.00;0.00;;;15.40;99.90;;;;;;7380888;19;20133;-74
2023/07/21 01:09:46;;;;;;;0.00;0.00;;;15.10;99.90;;;;;;7379646;19;20156;-75
2023/07/21 01:12:18;;;;;;;0.00;0.00;;;15.00;99.90;;;;;;7379485;19;20152;-74
2023/07/21 01:14:48;;;;;;;0.00;0.00;;;15.00;99.90;;;;;;7380279;19;20156;-75
2023/07/21 01:17:17;;;;;;;0.00;0.00;;;;;;;;;;7378704;19;20148;-75
2023/07/21 01:19:48;;;;;;;0.00;0.00;;;;;;;;;;7380746;19;20133;-75
2023/07/21 01:22:23;;;;;;;0.00;0.00;;;;;;;;;;7379297;19;20153;-74
2023/07/21 01:25:07;;;;;;;0.00;0.00;;;;;;;;;;7380012;19;20151;-74
2023/07/21 01:27:39;;;;;;;0.00;0.00;;;;;;;;;;7381143;19;20148;-75
2023/07/21 01:30:10;;;;;;;0.00;0.00;;;;;;;;;;7378340;19;20521;-75
2023/07/21 01:32:41;;;;;;;0.00;0.00;;;;;;;;;;7379768;19;20184;-74
2023/07/21 01:35:12;;;;;;;0.00;0.00;;;;;;;;;;7378614;19;20152;-74
2023/07/21 01:37:42;;;;;;;0.00;0.00;;;;;;;;;;7379591;19;20157;-75
2023/07/21 01:40:15;;;;;;;0.00;0.00;;;;;;;;;;7379055;19;20164;-74
2023/07/21 01:42:44;;;;;;;0.00;0.00;;;;;;;;;;7376848;19;20184;-74
2023/07/21 01:45:14;;;;;;;0.00;0.00;;;;;;;;;;7380139;19;20144;-74
2023/07/21 01:47:43;;;;;;;0.00;0.00;;;;;;;;;;7380637;19;20141;-74
2023/07/21 01:50:13;;;;;;;0.00;0.00;;;;;;;;;;7377550;19;20137;-75
2023/07/21 01:52:42;;;;;;;0.10;0.10;;;;;;;;;;7378474;19;20180;-74
2023/07/21 01:55:18;;;;;;;0.10;0.10;;;;;;;;;;7378412;19;20184;-74
2023/07/21 01:57:49;;;;;;;0.00;0.00;;;;;;;;;;7378310;19;20202;-74
2023/07/21 02:00:20;;;;;;;0.00;0.00;;;;;;;;;;7376733;19;20156;-74
2023/07/21 02:02:49;;;;;;;0.00;0.00;;;;;;;;;;7378613;19;20187;-74
2023/07/21 02:05:22;;;;;;;0.00;0.00;;;;;;;;;;7378277;19;20149;-73
2023/07/21 02:07:51;;;;;;;0.00;0.00;;;;;;;;;;7378974;19;20148;-74
2023/07/21 02:10:23;;;;;;;0.00;0.00;;;;;;;;;;7378952;19;20129;-74
2023/07/21 02:13:07;;;;;;;0.00;0.00;;;;;;;;;;7376671;19;20176;-75
2023/07/21 02:15:36;;;;;;;0.00;0.00;;;;;;;;;;7379153;19;20156;-74
2023/07/21 02:18:05;;;;;;;0.00;0.00;;;;;;;;;;7378191;19;20156;-75
2023/07/21 02:20:34;;;;;;;0.00;0.00;;;;;;;;;;7377879;19;20185;-75
2023/07/21 02:23:03;;;;;;;0.00;0.00;;;;;;;;;;7376635;19;20204;-75
2023/07/21 02:25:35;;;;;;;0.00;0.00;;;;;;;;;;7378562;19;20177;-75
2023/07/21 02:28:04;;;;;;;0.00;0.00;;;;;;;;;;7377453;19;20170;-74
2023/07/21 02:30:33;;;;;;;0.00;0.00;;;;;;;;;;7379129;19;20148;-74
2023/07/21 02:33:02;;;;;;;0.00;0.00;;;;;;;;;;7376309;19;20191;-74
2023/07/21 02:35:32;;;;;;;0.00;0.00;;;;;;;;;;7379102;19;20193;-74
2023/07/21 02:38:03;;;;;;;0.00;0.00;;;;;;;;;;7379299;19;20133;-74
2023/07/21 02:40:35;;;;;;;0.00;0.00;;;;;;;;;;7376367;19;20165;-74
2023/07/21 02:43:04;;;;;;;0.00;0.00;;;;;;;;;;7379993;19;20160;-74
2023/07/21 02:45:33;;;;;;;0.10;0.10;;;;;;;;;;7377175;19;20226;-74
2023/07/21 02:48:03;;;;;;;0.00;0.00;;;;;;;;;;7379206;19;20209;-74
2023/07/21 02:50:33;;;;;;;0.00;0.00;;;;;;;;;;7374439;19;20152;-74
2023/07/21 02:53:02;;;;;;;0.00;0.00;;;;;;;;;;7377395;19;20187;-75
2023/07/21 02:55:31;;;;;;;0.00;0.00;;;;;;;;;;7385423;19;20133;-74
2023/07/21 02:58:03;;;;;;;0.00;0.00;;;;;;;;;;7383565;19;20149;-74
2023/07/21 03:00:36;;;;;;;0.00;0.00;;;;;;;;;;7383742;19;20156;-74
2023/07/21 03:03:17;;;;;;;0.00;0.00;;;;;;;;;;7382175;19;20239;-74
2023/07/21 03:05:50;;;;;;;0.00;0.00;;;;;;;;;;7383985;19;20153;-74
2023/07/21 03:08:19;;;;;;;0.00;0.00;;;;;;;;;;7383515;19;20153;-74
2023/07/21 03:10:48;;;;;;;0.00;0.00;;;;;;;;;;7383751;19;20156;-75
2023/07/21 03:13:24;;;;;;;0.00;0.00;;;;;;;;;;7382138;19;20215;-75
2023/07/21 03:15:53;;;;;;;0.10;0.10;;;;;;;;;;7384348;19;20144;-74
2023/07/21 03:18:28;;;;;;;0.00;0.00;;;;;;;;;;7382645;19;20159;-74
2023/07/21 03:21:17;;;;;;;0.00;0.00;;;;;;;;;;7383951;19;20163;-74
2023/07/21 03:23:47;;;;;;;0.00;0.00;;;;;;;;;;7383150;19;20184;-75
2023/07/21 03:26:21;;;;;;;0.00;0.00;;;;;;;;;;7383912;19;20152;-75
2023/07/21 03:28:54;;;;;;;0.00;0.00;;;;;;;;;;7383356;19;20153;-74
2023/07/21 03:31:25;;;;;;;0.00;0.00;;;;;;;;;;7382481;19;20155;-75
2023/07/21 03:33:59;;;;;;;0.00;0.00;;;;;;;;;;7381317;19;20172;-75
2023/07/21 03:36:30;;;;;;;0.00;0.00;;;;;;;;;;7382142;19;20148;-74
2023/07/21 03:39:01;;;;;;;0.00;0.00;;;;;;;;;;7382167;19;20153;-74
2023/07/21 03:41:30;;;;;;;0.03;0.03;;;;;;;;;;7382628;19;20207;-74
2023/07/21 03:44:02;;;;;;;0.00;0.00;;;;;;;;;;7381634;19;20175;-74
2023/07/21 03:46:31;;;;;;;0.00;0.00;;;;;;;;;;7382821;19;20178;-74
2023/07/21 03:49:03;;;;;;;0.00;0.00;;;;;;;;;;7383827;19;20144;-75
2023/07/21 03:51:34;;;;;;;0.00;0.00;;;;;;;;;;7381770;19;20156;-74
2023/07/21 03:54:03;;;;;;;0.00;0.00;;;;;;;;;;7381404;19;20191;-74
2023/07/21 03:56:32;;;;;;;0.00;0.00;;;;;;;;;;7384208;19;20139;-75
2023/07/21 03:59:04;;;;;;;0.00;0.00;;;;;;;;;;7382968;19;20133;-75
2023/07/21 04:01:33;;;;;;;0.00;0.00;;;;;;;;;;7382245;19;20157;-74
2023/07/21 04:04:02;;;;;;;0.10;0.10;;;;;;;;;;7381056;19;20183;-74
2023/07/21 04:06:32;;;;;;;0.00;0.00;;;;;;;;;;7381896;19;20152;-75
2023/07/21 04:09:02;;;;;;;0.00;0.00;;;;;;;;;;7384461;19;20153;-75
2023/07/21 04:11:31;;;;;;;0.00;0.00;;;;;;;;;;7382619;19;20154;-75
2023/07/21 04:14:00;;;;;;;0.00;0.00;;;;;;;;;;7382129;19;20184;-74
2023/07/21 04:16:32;;;;;;;0.00;0.00;;;;;;;;;;7382222;19;20173;-75
2023/07/21 04:19:01;;;;;;;0.00;0.00;;;;;;;;;;7381504;19;20145;-75
2023/07/21 04:21:31;;;;;;;0.00;0.00;;;;;;;;;;7381372;19;20144;-75
2023/07/21 04:24:00;;;;;;;0.00;0.00;;;;;;;;;;7381363;19;20522;-75
2023/07/21 04:26:29;;;;;;;0.00;0.00;;;;;;;;;;7381759;19;20161;-75
2023/07/21 04:28:58;;;;;;;0.00;0.00;;;;;;;;;;7384798;19;20161;-75
2023/07/21 04:31:28;;;;;;;0.00;0.00;;;;;;;;;;7380967;19;20161;-75
2023/07/21 04:34:09;;;;;;;0.00;0.00;;;;;;;;;;7379764;19;20180;-75
2023/07/21 04:36:41;;;;;;;0.00;0.00;;;;;;;;;;7380985;19;20140;-75
2023/07/21 04:39:29;;;;;;;0.00;0.00;;;;;;;;;;7378142;19;20639;-75
2023/07/21 04:41:58;;;;;;;0.00;0.00;;;;;;;;;;7380940;19;20170;-75
2023/07/21 04:44:27;;;;;;;0.00;0.00;;;;;;;;;;7379042;19;20184;-75
2023/07/21 04:46:56;;;;;;;0.00;0.00;;;;;;;;;;7382000;19;20144;-74
2023/07/21 04:49:35;;;;;;;0.00;0.00;;;;;;;;;;7379588;19;20183;-74
2023/07/21 04:52:05;;;;;;;0.00;0.00;;;;;;;;;;7380348;19;20149;-75
2023/07/21 04:54:34;;;;;;;0.00;0.00;;;;;;;;;;7379579;19;20177;-74
2023/07/21 04:57:03;;;;;;;0.00;0.00;;;;;;;;;;7380329;19;20153;-74
2023/07/21 04:59:33;;;;;;;0.00;0.00;;;;;;;;;;7379380;19;20166;-75
2023/07/21 05:02:02;;;;;;;0.00;0.00;;;;;;;;;;7382580;19;20137;-76
2023/07/21 05:04:30;;;;;;;0.00;0.00;;;;;;;;;;7378869;19;20184;-75
2023/07/21 05:07:05;;;;;;;0.00;0.00;;;;;;;;;;7381334;19;20155;-75
2023/07/21 05:09:37;;;;;;;0.00;0.00;;;;;;;;;;7379179;19;20190;-75
2023/07/21 05:12:13;;;;;;;0.00;0.00;;;;;;;;;;7380551;19;20172;-75
2023/07/21 05:15:12;;;;;;;0.00;0.00;;;;;;;;;;7380713;19;20167;-74
2023/07/21 05:17:45;;;;;;;0.00;0.00;;;;;;;;;;7377224;19;20224;-75
2023/07/21 05:20:42;;;;;;;0.00;0.00;;;;;;;;;;7377269;19;20145;-75
2023/07/21 05:23:16;;;;;;;0.00;0.00;;;;;;;;;;7381483;19;20188;-75
2023/07/21 05:25:48;;;;;;;0.00;0.00;;;;;;;;;;7380411;19;20158;-74
2023/07/21 05:28:17;;;;;;;0.00;0.00;;;;;;;;;;7376571;19;20153;-74
2023/07/21 05:30:48;;;;;;;0.00;0.00;;;;;;;;;;7377962;19;20157;-74
2023/07/21 05:33:19;;;;;;;0.00;0.00;;;;;;;;;;7378062;19;20180;-75
2023/07/21 05:35:48;;;;;;;0.00;0.00;;;;;;;;;;7380393;19;20223;-75
2023/07/21 05:38:28;;;;;;;0.00;0.00;;;;;;;;;;7378223;19;20153;-74
2023/07/21 05:41:00;;;;;;;0.00;0.00;;;;;;;;;;7377774;19;20144;-74
2023/07/21 05:43:29;;;;;;;0.00;0.00;;;;;;;;;;7377399;19;20172;-75
2023/07/21 05:45:58;;;;;;;0.00;0.00;;;;;;;;;;7379558;19;20156;-74
2023/07/21 05:48:28;;;;;;;0.00;0.00;;;;;;;;;;7377146;19;20149;-75
2023/07/21 05:51:00;;;;;;;0.00;0.00;;;;;;;;;;7378100;19;20149;-75
2023/07/21 05:53:32;;;;;;;0.10;0.10;;;;;;;;;;7376799;19;20180;-75
2023/07/21 05:56:03;;;;;;;0.00;0.00;;;;;;;;;;7377221;19;20157;-76
2023/07/21 05:58:48;;;;;;;0.00;0.00;;;;;;;;;;7375488;19;20153;-75
2023/07/21 06:01:18;;;;;;;0.00;0.00;;;;;;;;;;7377811;19;20177;-76
2023/07/21 06:03:46;;;;;;;0.00;0.00;;;;;;;;;;7377038;19;20428;-75
2023/07/21 06:06:15;;;;;;;0.10;0.10;;;;;;;;;;7379191;19;20152;-74
2023/07/21 06:09:11;;;;;;;0.00;0.00;;;;;;;;;;7378964;19;20151;-74
2023/07/21 06:12:00;;;;;;;0.00;0.00;;;;;;;;;;7378244;19;20164;-75
2023/07/21 06:14:42;;;;;;;0.00;0.00;;;;;;;;;;7376854;19;20164;-75
2023/07/21 06:17:16;;;;;;;0.00;0.00;;;;;;;;;;7378813;19;20228;-75
2023/07/21 06:19:45;;;;;;;0.00;0.00;;;;;;;;;;7364888;19;20171;-76
2023/07/21 06:22:14;;;;;;;0.10;0.10;;;;;;;;;;7375241;19;20163;-76
2023/07/21 06:24:46;;;;;;;0.10;0.10;;;;;;;;;;7377923;19;20159;-76
2023/07/21 06:27:16;;;;;;;0.00;0.00;;;;;;;;;;7375748;19;20149;-75
2023/07/21 06:29:45;;;;;;;0.10;0.10;;;;;;;;;;7376052;19;20499;-75
2023/07/21 06:32:19;;;;;;;0.00;0.00;;;;;;;;;;7377618;19;20152;-75
2023/07/21 06:34:59;;;;;;;0.00;0.00;;;;;;;;;;7376981;19;20160;-75
2023/07/21 06:37:43;;;;;;;0.00;0.00;;;;;;;;;;7376818;19;20192;-75
2023/07/21 06:40:35;;;;;;;0.00;0.00;;;;;;;;;;7374038;19;20156;-75
2023/07/21 06:43:33;;;;;;;0.00;0.00;;;;;;;;;;7373909;19;20177;-75
2023/07/21 06:46:25;;;;;;;0.00;0.00;;;;;;;;;;7379716;19;20133;-75
2023/07/21 06:49:31;;;;;;;0.00;0.00;;;;;;;;;;7377775;19;20168;-75
2023/07/21 06:52:08;;;;;;;0.00;0.00;;;;;;;;;;7375338;19;20164;-75
2023/07/21 06:54:38;;;;;;;0.00;0.00;;;;;;;;;;7377157;19;20153;-76
2023/07/21 06:57:10;;;;;;;0.00;0.00;;;;;;;;;;7377680;19;20153;-75
2023/07/21 06:59:39;;;;;;;0.00;0.00;;;;;;;;;;7374509;19;20167;-75
2023/07/21 07:02:09;;;;;;;0.10;0.10;;;;;;;;;;7376013;19;20163;-74
2023/07/21 07:04:38;;;;;;;0.00;0.00;;;;;;;;;;7374325;19;20208;-74
2023/07/21 07:07:07;;;;;;;0.00;0.00;;;;;;;;;;7378157;19;20140;-75
2023/07/21 07:09:37;;;;;;;0.00;0.00;;;;;;;;;;7378004;19;20133;-75
2023/07/21 07:12:07;;;;;;;0.00;0.00;;;;;;;;;;7376811;19;20155;-75
2023/07/21 07:14:39;;;;;;;0.00;0.00;;;;;;;;;;7376346;19;20152;-75
2023/07/21 07:17:08;;;;;;;0.00;0.00;;;;;;;;;;7376988;19;20152;-75
2023/07/21 07:19:37;;;;;;;0.00;0.00;;;;;;;;;;7376766;19;20144;-75
2023/07/21 07:22:09;;;;;;;0.00;0.00;;;;;;;;;;7377105;19;20140;-75
2023/07/21 07:24:40;;;;;;;0.00;0.00;;;;;;;;;;7375960;19;20168;-74
2023/07/21 07:27:09;;;;;;;0.00;0.00;;;;;;;;;;7377020;19;20148;-75
2023/07/21 07:29:41;;;;;;;0.00;0.00;;;;;;;;;;7374538;19;20145;-75
2023/07/21 07:32:10;;;;;;;0.00;0.00;;;;;;;;;;7377810;19;20137;-75
2023/07/21 07:34:40;;;;;;;0.10;0.10;;;;;;;;;;7373443;19;20204;-75
2023/07/21 07:37:10;;;;;;;0.00;0.00;;;;;;;;;;7377845;19;20153;-76
2023/07/21 07:39:39;;;;;;;0.00;0.00;;;;;;;;;;7375785;19;20188;-75
2023/07/21 07:42:08;;;;;;;0.00;0.00;;;;;;;;;;7385213;19;20137;-75
2023/07/21 07:44:39;;;;;;;0.00;0.00;;;;;;;;;;7381933;19;20184;-76
2023/07/21 07:47:11;;;;;;;0.00;0.00;;;;;;;;;;7385007;19;20185;-78
2023/07/21 07:49:40;;;;;;;0.00;0.00;;;;;;;;;;7385686;19;20157;-79
2023/07/21 07:52:10;;;;;;;0.00;0.00;;;;;;;;;;7386038;19;20133;-78
2023/07/21 07:54:39;;;;;;;0.00;0.00;;;;;;;;;;7382090;19;20187;-79
2023/07/21 07:57:09;;;;;;;0.00;0.00;;;;;;;;;;7387005;19;20153;-78
2023/07/21 07:59:38;;;;;;;0.10;0.10;;;;;;;;;;7383255;19;20160;-78
2023/07/21 08:02:07;;;;;;;0.00;0.00;;;;;;;;;;7384388;19;20186;-78
2023/07/21 08:04:39;;;;;;;0.00;0.00;;;;;;;;;;7381689;19;20172;-78
2023/07/21 08:07:09;;;;;;;0.00;0.00;;;;;;;;;;7384025;19;20149;-76
2023/07/21 08:09:38;;;;;;;0.00;0.00;;;;;;;;;;7382965;19;20156;-78
2023/07/21 08:12:07;;;;;;;0.00;0.00;;;;;;;;;;7380759;19;20145;-78
2023/07/21 08:14:36;;;;;;;0.00;0.00;;;;;;;;;;7375835;19;20177;-78
2023/07/21 08:17:05;;;;;;;0.00;0.00;;;;;;;;;;7384748;19;20133;-78
2023/07/21 08:19:34;;;;;;;0.10;0.10;;;;;;;;;;7381428;19;20156;-78
2023/07/21 08:22:10;;;;;;;0.00;0.00;;;;;;;;;;7382573;19;20156;-77
2023/07/21 08:24:39;;;;;;;0.00;0.00;;;;;;;;;;7382709;19;20215;-78
2023/07/21 08:27:09;;;;;;;0.00;0.00;;;;;;;;;;7383918;19;20188;-78
2023/07/21 08:29:39;;;;;;;0.10;0.10;;;;;;;;;;7379830;19;20153;-78
2023/07/21 08:32:09;;;;;;;0.10;0.10;;;;;;;;;;7385997;19;20208;-79
2023/07/21 08:34:38;;;;;;;0.00;0.00;;;;;;;;;;7383056;19;20149;-78
2023/07/21 08:37:09;;;;;;;0.00;0.00;;;;;;;;;;7381394;19;20180;-78
2023/07/21 08:39:38;;;;;;;0.00;0.00;;;;;;;;;;7382993;19;20168;-78
2023/07/21 08:42:08;;;;;;;0.00;0.00;;;;;;;;;;7384074;19;20236;-78
2023/07/21 08:44:38;;;;;;;0.00;0.00;;;;;;;;;;7380334;19;20184;-77
2023/07/21 08:47:07;;;;;;;0.00;0.00;;;;;;;;;;7381690;19;20157;-78
2023/07/21 08:49:36;;;;;;;0.00;0.00;;;;;;;;;;7381627;19;20169;-78
2023/07/21 08:52:06;;;;;;;0.00;0.00;;;;;;;;;;7382744;19;20140;-78
2023/07/21 08:54:38;;;;;;;0.00;0.00;;;;;;;;;;7381346;19;20180;-77
2023/07/21 08:57:07;;;;;;;0.00;0.00;;;;;;;;;;7383804;19;20137;-78
2023/07/21 08:59:36;;;;;;;0.00;0.00;;;;;;;;;;7383495;19;20130;-78
2023/07/21 09:02:05;;;;;;;0.00;0.00;;;;;;;;;;7382104;19;20137;-78
2023/07/21 09:04:34;;;;;;;0.00;0.00;;;;;;;;;;7379479;19;20223;-78
2023/07/21 09:07:04;;;;;;;0.10;0.10;;;;;;;;;;7381498;19;20153;-78
2023/07/21 09:09:34;;;;;;;0.00;0.00;;;;;;;;;;7380153;19;20180;-78
2023/07/21 09:12:07;;;;;;;0.00;0.00;;;;;;;;;;7380539;19;20164;-78
2023/07/21 09:14:39;;;;;;;0.00;0.00;;;;;;;;;;7380207;19;20184;-77
2023/07/21 09:17:09;;;;;;;0.00;0.00;;;;;;;;;;7380618;19;20152;-78
2023/07/21 09:19:38;;;;;;;0.00;0.00;;;;;;;;;;7381074;19;20162;-78
2023/07/21 09:22:07;;;;;;;0.00;0.00;;;;;;;;;;7379790;19;20137;-78
2023/07/21 09:24:37;;;;;;;0.00;0.00;;;;;;;;;;7378737;19;20184;-78
2023/07/21 09:27:24;;;;;;;0.00;0.00;;;;;;;;;;7380421;19;20163;-77
2023/07/21 09:30:02;;;;;;;0.00;0.00;;;;;;;;;;7381550;19;20204;-78
2023/07/21 09:32:31;;;;;;;0.00;0.00;;;;;;;;;;7380536;19;20149;-78
2023/07/21 09:35:00;;;;;;;0.00;0.00;;;;;;;;;;7379755;19;20188;-77
2023/07/21 09:37:30;;;;;;;0.00;0.00;;;;;;;;;;7383169;19;20149;-79
2023/07/21 09:40:00;;;;;;;0.00;0.00;;;;;;;;;;7380093;19;20153;-76
2023/07/21 09:42:29;;;;;;;0.00;0.00;;;;;;;;;;7383271;19;20608;-79
2023/07/21 09:45:01;;;;;;;0.00;0.00;;;;;;;;;;7381582;19;20133;-79
2023/07/21 09:47:30;;;;;;;0.00;0.00;;;;;;;;;;7381974;19;20153;-78
2023/07/21 09:50:00;;;;;;;0.00;0.00;;;;;;;;;;7386457;19;20141;-80
2023/07/21 09:52:35;;;;;;;0.00;0.00;;;;;;;;;;7388827;19;20156;-78
2023/07/21 09:55:10;;;;;;;0.00;0.00;;;;;;;;;;7389853;19;20133;-79
2023/07/21 09:57:43;;;;;;;0.00;0.00;;;;;;;;;;7390590;19;20148;-77
2023/07/21 10:00:16;;;;;;;0.00;0.00;;;;;;;;;;7389136;19;20154;-80
2023/07/21 10:02:46;;;;;;;0.00;0.00;;;;;;;;;;7389206;19;20149;-81
2023/07/21 10:05:16;;;;;;;0.00;0.00;;;;;;;;;;7389070;19;20140;-81
2023/07/21 10:07:46;;;;;;;0.00;0.00;;;;;;;;;;7391555;19;20133;-82
2023/07/21 10:10:15;;;;;;;0.00;0.00;;;;;;;;;;7385895;19;20163;-81
2023/07/21 10:12:46;;;;;;;0.00;0.00;;;;;;;;;;7384416;19;20153;-81
2023/07/21 10:15:22;;;;;;;0.00;0.00;;;;;;;;;;7387394;19;20153;-82
2023/07/21 10:17:58;;;;;;;0.00;0.00;;;;;;;;;;7387287;19;20169;-81
2023/07/21 10:20:40;;;;;;;0.00;0.00;;;;;;;;;;7382884;19;20152;-80
2023/07/21 10:23:09;;;;;;;0.00;0.00;;;;;;;;;;7382332;19;20172;-81
2023/07/21 10:25:53;;;;;;;0.00;0.00;;;;;;;;;;7382381;19;20233;-81
2023/07/21 10:28:25;;;;;;;0.00;0.00;;;;;;;;;;7385734;19;20147;-82
2023/07/21 10:30:57;;;;;;;0.00;0.00;;;;;;;;;;7383502;19;20684;-82
2023/07/21 10:33:32;;;;;;;0.00;0.00;;;20.40;99.90;;;;;;7382804;19;20172;-81
2023/07/21 10:36:16;;;;;;;0.00;0.00;;;;;;;;;;7384832;19;20153;-81
2023/07/21 10:38:47;;;;;;;0.00;0.00;;;;;;;;;;7384443;19;20147;-82
2023/07/21 10:41:16;;;;;;;0.00;0.00;;;;;;;;;;7377453;19;20190;-81
2023/07/21 10:43:45;;;;;;;0.00;0.00;;;;;;;;;;7383509;19;20140;-82
2023/07/21 10:46:16;;;;;;;0.00;0.00;;;;;;;;;;7381525;19;20166;-81
2023/07/21 10:48:45;;;;;;;0.00;0.00;;;;;;;;;;7383240;19;20141;-81
2023/07/21 10:51:14;;;;;;;0.00;0.00;;;;;;;;;;7377301;19;20132;-81
2023/07/21 10:53:43;;;;;;;0.00;0.00;;;;;;;;;;7379307;19;20176;-81
2023/07/21 10:56:12;;;;;;;0.00;0.00;;;;;;;;;;7383042;19;20493;-81
2023/07/21 10:58:41;;;;;;;0.00;0.00;;;;;;;;;;7374252;19;20145;-81
2023/07/21 11:01:10;;;;;;;0.00;0.00;;;;;;;;;;7381409;19;20133;-82
2023/07/21 11:03:44;;;;;;;0.00;0.00;;;;;;;;;;7371358;19;20180;-81
2023/07/21 11:06:14;;;;;;;0.00;0.00;;;;;;;;;;7381386;19;20148;-81
2023/07/21 11:08:43;;;;;;;0.00;0.00;;;;;;;;;;7377467;19;20133;-81
2023/07/21 11:11:12;;;;;;;0.00;0.00;;;;;;;;;;7378692;19;20168;-81
2023/07/21 11:13:41;;;;;;;0.00;0.00;;;;;;;;;;7377618;19;20180;-81
2023/07/21 11:16:12;;;;;;;0.00;0.00;;;;;;;;;;7384108;19;20257;-82
2023/07/21 11:18:46;;;;;;;0.00;0.00;;;;;;;;;;7387463;19;20156;-82
2023/07/21 11:21:15;;;;;;;0.00;0.00;;;;;;;;;;7385223;19;20152;-82
2023/07/21 11:23:44;;;;;;;0.00;0.00;;;;;;;;;;7387475;19;20165;-82
2023/07/21 11:26:14;;;;;;;0.00;0.00;;;;;;;;;;7389610;19;20136;-81
2023/07/21 11:28:44;;;;;;;0.00;0.00;;;22.40;99.90;;;;;;7388441;19;20143;-83
2023/07/21 11:31:14;;;;;;;0.00;0.00;;;23.00;99.90;;;;;;7384076;19;20145;-83
2023/07/21 11:33:48;;;;;;;0.00;0.00;;;23.20;99.90;;;;;;7387042;19;20160;-82
2023/07/21 11:36:18;;;;;;;0.00;0.00;;;23.30;99.90;;;;;;7386581;19;20149;-82
2023/07/21 11:39:04;;;;;;;0.00;0.00;;;23.30;99.90;;;;;;7386854;19;20141;-81
2023/07/21 11:41:37;;;;;;;0.00;0.00;;;23.40;99.90;;;;;;7385087;19;20149;-81
2023/07/21 11:44:08;;;;;;;0.00;0.00;;;23.50;99.90;;;;;;7383113;19;20180;-79
2023/07/21 11:46:37;;;;;;;0.00;0.00;;;23.50;99.90;;;;;;7384482;19;20153;-77
2023/07/21 11:49:10;;;;;;;0.00;0.00;;;23.60;99.90;;;;;;7386130;19;20485;-78
2023/07/21 11:51:45;;;;;;;0.00;0.00;;;23.80;99.90;;;;;;7384299;19;20140;-78
2023/07/21 11:54:21;;;;;;;0.00;0.00;;;24.00;99.90;;;;;;7384059;19;20156;-78
2023/07/21 11:56:51;;;;;;;0.00;0.00;;;24.10;99.90;;;;;;7383603;19;20156;-78
2023/07/21 11:59:21;;;;;;;0.00;0.00;;;24.30;99.90;;;;;;7384202;19;20157;-79
2023/07/21 12:01:50;;;;;;;0.00;0.00;;;24.30;99.90;;;;;;7384327;19;20148;-78
2023/07/21 12:04:23;;;;;;;0.00;0.00;;;24.30;99.90;;;;;;7380313;19;20775;-79
2023/07/21 12:06:53;;;;;;;0.00;0.00;;;24.30;99.90;;;;;;7386569;19;20144;-78
2023/07/21 12:09:23;;;;;;;0.00;0.00;;;24.50;99.90;;;;;;7377868;19;20234;-79
2023/07/21 12:11:52;;;;;;;0.00;0.00;;;24.60;99.90;;;;;;7384985;19;20212;-78
2023/07/21 12:14:20;;;;;;;0.00;0.00;;;24.50;99.90;;;;;;7381142;19;20195;-78
2023/07/21 12:16:49;;;;;;;0.00;0.00;;;24.30;99.90;;;;;;7383605;19;20174;-78
2023/07/21 12:19:20;;;;;;;0.00;0.00;;;24.20;99.90;;;;;;7382108;19;20156;-78
2023/07/21 12:21:49;;;;;;;0.00;0.00;;;24.00;99.90;;;;;;7382332;19;20149;-78
2023/07/21 12:24:18;;;;;;;0.00;0.00;;;23.80;99.90;;;;;;7382526;19;20225;-78
2023/07/21 12:26:47;;;;;;;0.00;0.00;;;23.80;99.90;;;;;;7382293;19;20137;-79
2023/07/21 12:29:16;;;;;;;0.00;0.00;;;23.80;99.90;;;;;;7383801;19;20145;-77
2023/07/21 12:31:45;;;;;;;0.00;0.00;;;23.70;99.90;;;;;;7382575;19;20170;-77
2023/07/21 12:34:14;;;;;;;0.00;0.00;;;23.70;99.90;;;;;;7380691;19;20292;-79
2023/07/21 12:36:46;;;;;;;0.00;0.00;;;23.80;99.90;;;;;;7383326;19;20145;-77
2023/07/21 12:39:17;;;;;;;0.00;0.00;;;23.70;99.90;;;;;;7382517;19;20212;-78
2023/07/21 12:41:46;;;;;;;0.00;0.00;;;23.80;99.90;;;;;;7379981;19;20153;-77
2023/07/21 12:44:14;;;;;;;0.00;0.00;;;23.80;99.90;;;;;;7380465;19;20255;-78
2023/07/21 12:46:43;;;;;;;0.00;0.00;;;23.80;99.90;;;;;;7380656;19;20164;-79
2023/07/21 12:49:12;;;;;;;0.00;0.00;;;23.70;99.90;;;;;;7382173;19;20145;-78
2023/07/21 12:51:42;;;;;;;0.00;0.00;;;23.60;99.90;;;;;;7381426;19;20160;-78
2023/07/21 12:54:13;;;;;;;0.00;0.00;;;23.80;99.90;;;;;;7381590;19;20153;-78
2023/07/21 12:56:42;;;;;;;0.00;0.00;;;23.70;99.90;;;;;;7382322;19;20803;-79
2023/07/21 12:59:11;;;;;;;0.00;0.00;;;23.80;99.90;;;;;;7381851;19;20153;-78
2023/07/21 13:01:39;;;;;;;0.00;0.00;;;23.80;99.90;;;;;;7379993;19;20156;-78
2023/07/21 13:04:08;;;;;;;0.00;0.00;;;23.80;99.90;;;;;;7383829;19;20176;-78
2023/07/21 13:06:37;;;;;;;0.00;0.00;;;23.80;99.90;;;;;;7382337;19;20151;-77
2023/07/21 13:09:06;;;;;;;0.00;0.00;;;23.80;99.90;;;;;;7381605;19;20149;-78
2023/07/21 13:11:38;;;;;;;0.00;0.00;;;23.80;99.90;;;;;;7382102;19;20193;-78
2023/07/21 13:14:06;;;;;;;0.00;0.00;;;23.80;99.90;;;;;;7380152;19;20180;-77
2023/07/21 13:16:35;;;;;;;0.00;0.00;;;23.90;99.90;;;;;;7378451;19;20148;-78
2023/07/21 13:19:05;;;;;;;0.00;0.00;;;23.80;99.90;;;;;;7382317;19;20161;-77
2023/07/21 13:21:34;;;;;;;0.00;0.00;;;23.80;99.90;;;;;;7377523;19;20177;-77
2023/07/21 13:24:03;;;;;;;0.00;0.00;;;23.70;99.90;;;;;;7380623;19;20220;-76
2023/07/21 13:26:33;;;;;;;0.00;0.00;;;23.70;99.90;;;;;;7381756;19;20132;-78
2023/07/21 13:29:04;;;;;;;0.00;0.00;;;23.70;99.90;;;;;;7379737;19;20144;-77
2023/07/21 13:31:33;;;;;;;0.00;0.00;;;23.60;99.90;;;;;;7381003;19;20139;-75
2023/07/21 13:34:05;;;;;;;0.00;0.00;;;23.50;99.90;;;;;;7378676;19;20184;-77
2023/07/21 13:36:34;;;;;;;0.00;0.00;;;23.50;99.90;;;;;;7380046;19;20152;-78
2023/07/21 13:39:03;;;;;;;0.00;0.00;;;23.30;99.90;;;;;;7377011;19;20176;-77
2023/07/21 13:41:32;;;;;;;0.00;0.00;;;23.30;99.90;;;;;;7378952;19;20145;-80
2023/07/21 13:44:04;;;;;;;0.00;0.00;;;23.20;99.90;;;;;;7380630;19;20149;-80
2023/07/21 13:46:32;;;;;;;0.00;0.00;;;23.30;99.90;;;;;;7381924;19;20145;-82
2023/07/21 13:49:01;;;;;;;0.00;0.00;;;23.30;99.90;;;;;;7382350;19;20145;-80
2023/07/21 13:51:30;;;;;;;0.00;0.00;;;23.40;99.90;;;;;;7380976;19;20151;-81
2023/07/21 13:53:59;;;;;;;0.00;0.00;;;23.60;99.90;;;;;;7381083;19;20156;-78
2023/07/21 13:56:29;;;;;;;0.00;0.00;;;23.70;99.90;;;;;;7379616;19;20157;-79
2023/07/21 13:58:59;;;;;;;0.00;0.00;;;23.70;99.90;;;;;;7379013;19;20163;-80
2023/07/21 14:01:30;;;;;;;0.00;0.00;;;23.70;99.90;;;;;;7378481;19;20224;-80
2023/07/21 14:03:59;;;;;;;0.00;0.00;;;23.80;99.90;;;;;;7377087;19;20172;-78
2023/07/21 14:06:28;;;;;;;0.00;0.00;;;23.90;99.90;;;;;;7380226;19;20128;-77
2023/07/21 14:08:57;;;;;;;0.00;0.00;;;24.00;99.90;;;;;;7380943;19;20166;-77
2023/07/21 14:11:26;;;;;;;0.00;0.00;;;24.00;99.90;;;;;;7380089;19;20137;-76
2023/07/21 14:13:55;;;;;;;0.00;0.00;;;24.00;99.90;;;;;;7376893;19;20168;-77
2023/07/21 14:16:25;;;;;;;0.00;0.00;;;24.00;99.90;;;;;;7375299;19;20160;-77
2023/07/21 14:18:57;;;;;;;0.00;0.00;;;24.10;99.90;;;;;;7376106;19;20576;-78
2023/07/21 14:21:29;;;;;;;0.00;0.00;;;24.00;99.90;;;;;;7378252;19;20165;-77
2023/07/21 14:23:58;;;;;;;0.00;0.00;;;24.00;99.90;;;;;;7378010;19;20189;-77
2023/07/21 14:26:27;;;;;;;0.00;0.00;;;24.00;99.90;;;;;;7378648;19;20164;-76
2023/07/21 14:28:56;;;;;;;0.00;0.00;;;24.10;99.90;;;;;;7379479;19;20137;-76
2023/07/21 14:31:25;;;;;;;0.00;0.00;;;24.10;99.90;;;;;;7378620;19;20136;-76
2023/07/21 14:33:56;;;;;;;0.00;0.00;;;24.10;99.90;;;;;;7376770;19;20208;-77
2023/07/21 14:36:24;;;;;;;0.00;0.00;;;24.10;99.90;;;;;;7378716;19;20204;-77
2023/07/21 14:38:53;;;;;;;0.00;0.00;;;24.10;99.90;;;;;;7377374;19;20159;-76